sensor_id;sensor_type;location;lat;lon;timestamp;P1;durP1;ratioP1;P2;durP2;ratioP2
46322;SDS011;32044;52.386;13.278;2024-03-22T00:00:01;27.65;;;16.52;;
46322;SDS011;32044;52.386;13.278;2024-03-22T00:02:28;26.88;;;15.98;;
46322;SDS011;32044;52.386;13.278;2024-03-22T00:04:55;25.52;;;15.85;;
46322;SDS011;32044;52.386;13.278;2024-03-22T00:07:20;25.02;;;16.02;;
46322;SDS011;32044;52.386;13.278;2024-03-22T00:09:47;28.70;;;16.80;;
46322;SDS011;32044;52.386;13.278;2024-03-22T00:12:12;27.20;;;16.67;;
46322;SDS011;32044;52.386;13.278;2024-03-22T00:14:39;27.13;;;15.93;;
46322;SDS011;32044;52.386;13.278;2024-03-22T00:17:05;28.05;;;16.67;;
46322;SDS011;32044;52.386;13.278;2024-03-22T00:19:33;31.33;;;17.35;;
46322;SDS011;32044;52.386;13.278;2024-03-22T00:22:00;26.45;;;16.25;;
46322;SDS011;32044;52.386;13.278;2024-03-22T00:24:26;30.40;;;16.70;;
46322;SDS011;32044;52.386;13.278;2024-03-22T00:26:52;29.30;;;17.30;;
46322;SDS011;32044;52.386;13.278;2024-03-22T00:29:18;29.98;;;17.73;;
46322;SDS011;32044;52.386;13.278;2024-03-22T00:31:44;27.38;;;17.42;;
46322;SDS011;32044;52.386;13.278;2024-03-22T00:34:11;31.92;;;18.23;;
46322;SDS011;32044;52.386;13.278;2024-03-22T00:36:38;31.80;;;19.20;;
46322;SDS011;32044;52.386;13.278;2024-03-22T00:39:05;37.10;;;20.58;;
46322;SDS011;32044;52.386;13.278;2024-03-22T00:41:30;33.78;;;19.98;;
46322;SDS011;32044;52.386;13.278;2024-03-22T00:43:58;33.85;;;20.13;;
46322;SDS011;32044;52.386;13.278;2024-03-22T00:46:24;35.60;;;21.35;;
46322;SDS011;32044;52.386;13.278;2024-03-22T00:48:50;37.25;;;20.77;;
46322;SDS011;32044;52.386;13.278;2024-03-22T00:51:16;37.10;;;20.77;;
46322;SDS011;32044;52.386;13.278;2024-03-22T00:53:44;34.00;;;20.08;;
46322;SDS011;32044;52.386;13.278;2024-03-22T00:56:09;39.80;;;21.92;;
46322;SDS011;32044;52.386;13.278;2024-03-22T00:58:36;35.72;;;20.10;;
46322;SDS011;32044;52.386;13.278;2024-03-22T01:01:02;37.10;;;20.95;;
46322;SDS011;32044;52.386;13.278;2024-03-22T01:03:28;37.50;;;20.33;;
46322;SDS011;32044;52.386;13.278;2024-03-22T01:05:54;36.00;;;19.95;;
46322;SDS011;32044;52.386;13.278;2024-03-22T01:08:22;41.83;;;21.85;;
46322;SDS011;32044;52.386;13.278;2024-03-22T01:10:49;38.72;;;20.77;;
46322;SDS011;32044;52.386;13.278;2024-03-22T01:13:16;38.92;;;22.20;;
46322;SDS011;32044;52.386;13.278;2024-03-22T01:15:42;43.90;;;22.00;;
46322;SDS011;32044;52.386;13.278;2024-03-22T01:18:09;46.40;;;22.17;;
46322;SDS011;32044;52.386;13.278;2024-03-22T01:20:34;45.00;;;21.10;;
46322;SDS011;32044;52.386;13.278;2024-03-22T01:23:01;41.40;;;20.38;;
46322;SDS011;32044;52.386;13.278;2024-03-22T01:25:26;43.72;;;21.23;;
46322;SDS011;32044;52.386;13.278;2024-03-22T01:27:54;45.20;;;22.02;;
46322;SDS011;32044;52.386;13.278;2024-03-22T01:30:20;48.42;;;21.67;;
46322;SDS011;32044;52.386;13.278;2024-03-22T01:32:47;47.33;;;21.90;;
46322;SDS011;32044;52.386;13.278;2024-03-22T01:35:12;40.75;;;20.80;;
46322;SDS011;32044;52.386;13.278;2024-03-22T01:37:39;45.63;;;22.25;;
46322;SDS011;32044;52.386;13.278;2024-03-22T01:40:05;41.63;;;20.48;;
46322;SDS011;32044;52.386;13.278;2024-03-22T01:42:33;44.63;;;22.95;;
46322;SDS011;32044;52.386;13.278;2024-03-22T01:45:00;42.67;;;21.08;;
46322;SDS011;32044;52.386;13.278;2024-03-22T01:47:28;42.40;;;21.55;;
46322;SDS011;32044;52.386;13.278;2024-03-22T01:49:54;41.30;;;20.17;;
46322;SDS011;32044;52.386;13.278;2024-03-22T01:52:21;44.65;;;21.55;;
46322;SDS011;32044;52.386;13.278;2024-03-22T01:54:47;38.38;;;19.90;;
46322;SDS011;32044;52.386;13.278;2024-03-22T01:57:14;46.53;;;20.52;;
46322;SDS011;32044;52.386;13.278;2024-03-22T01:59:39;37.72;;;19.05;;
46322;SDS011;32044;52.386;13.278;2024-03-22T02:02:07;35.97;;;18.15;;
46322;SDS011;32044;52.386;13.278;2024-03-22T02:04:33;37.63;;;19.15;;
46322;SDS011;32044;52.386;13.278;2024-03-22T02:06:59;35.88;;;19.15;;
46322;SDS011;32044;52.386;13.278;2024-03-22T02:09:25;39.40;;;19.15;;
46322;SDS011;32044;52.386;13.278;2024-03-22T02:11:52;33.65;;;18.05;;
46322;SDS011;32044;52.386;13.278;2024-03-22T02:14:18;36.28;;;18.17;;
46322;SDS011;32044;52.386;13.278;2024-03-22T02:16:44;35.75;;;18.70;;
46322;SDS011;32044;52.386;13.278;2024-03-22T02:19:12;38.28;;;18.58;;
46322;SDS011;32044;52.386;13.278;2024-03-22T02:21:38;32.38;;;16.88;;
46322;SDS011;32044;52.386;13.278;2024-03-22T02:24:05;34.58;;;17.83;;
46322;SDS011;32044;52.386;13.278;2024-03-22T02:26:32;31.08;;;16.48;;
46322;SDS011;32044;52.386;13.278;2024-03-22T02:28:58;35.10;;;17.73;;
46322;SDS011;32044;52.386;13.278;2024-03-22T02:31:24;34.85;;;17.58;;
46322;SDS011;32044;52.386;13.278;2024-03-22T02:33:52;34.55;;;17.17;;
46322;SDS011;32044;52.386;13.278;2024-03-22T02:36:17;30.33;;;16.80;;
46322;SDS011;32044;52.386;13.278;2024-03-22T02:38:44;33.08;;;16.48;;
46322;SDS011;32044;52.386;13.278;2024-03-22T02:41:11;34.50;;;17.40;;
46322;SDS011;32044;52.386;13.278;2024-03-22T02:43:37;34.38;;;16.63;;
46322;SDS011;32044;52.386;13.278;2024-03-22T02:46:03;32.67;;;15.45;;
46322;SDS011;32044;52.386;13.278;2024-03-22T02:48:30;30.33;;;15.98;;
46322;SDS011;32044;52.386;13.278;2024-03-22T02:50:57;32.40;;;16.33;;
46322;SDS011;32044;52.386;13.278;2024-03-22T02:53:23;33.78;;;16.60;;
46322;SDS011;32044;52.386;13.278;2024-03-22T02:55:49;29.42;;;16.02;;
46322;SDS011;32044;52.386;13.278;2024-03-22T02:58:19;35.03;;;17.52;;
46322;SDS011;32044;52.386;13.278;2024-03-22T03:00:45;28.88;;;16.25;;
46322;SDS011;32044;52.386;13.278;2024-03-22T03:03:12;31.33;;;16.52;;
46322;SDS011;32044;52.386;13.278;2024-03-22T03:05:38;30.70;;;15.88;;
46322;SDS011;32044;52.386;13.278;2024-03-22T03:08:06;30.35;;;16.33;;
46322;SDS011;32044;52.386;13.278;2024-03-22T03:10:32;30.60;;;16.58;;
46322;SDS011;32044;52.386;13.278;2024-03-22T03:12:58;29.75;;;15.65;;
46322;SDS011;32044;52.386;13.278;2024-03-22T03:15:25;30.60;;;16.08;;
46322;SDS011;32044;52.386;13.278;2024-03-22T03:17:52;28.58;;;15.43;;
46322;SDS011;32044;52.386;13.278;2024-03-22T03:20:18;27.88;;;14.50;;
46322;SDS011;32044;52.386;13.278;2024-03-22T03:22:44;31.75;;;15.98;;
46322;SDS011;32044;52.386;13.278;2024-03-22T03:25:10;26.60;;;14.88;;
46322;SDS011;32044;52.386;13.278;2024-03-22T03:27:37;29.80;;;16.00;;
46322;SDS011;32044;52.386;13.278;2024-03-22T03:30:03;31.33;;;16.58;;
46322;SDS011;32044;52.386;13.278;2024-03-22T03:32:31;30.02;;;16.05;;
46322;SDS011;32044;52.386;13.278;2024-03-22T03:34:57;29.45;;;15.90;;
46322;SDS011;32044;52.386;13.278;2024-03-22T03:37:23;30.30;;;16.38;;
46322;SDS011;32044;52.386;13.278;2024-03-22T03:39:49;27.73;;;15.18;;
46322;SDS011;32044;52.386;13.278;2024-03-22T03:42:15;32.33;;;16.55;;
46322;SDS011;32044;52.386;13.278;2024-03-22T03:44:41;25.20;;;14.90;;
46322;SDS011;32044;52.386;13.278;2024-03-22T03:47:08;31.30;;;16.33;;
46322;SDS011;32044;52.386;13.278;2024-03-22T03:49:35;28.55;;;15.77;;
46322;SDS011;32044;52.386;13.278;2024-03-22T03:52:01;32.55;;;15.63;;
46322;SDS011;32044;52.386;13.278;2024-03-22T03:54:27;27.77;;;14.95;;
46322;SDS011;32044;52.386;13.278;2024-03-22T03:56:54;26.85;;;14.88;;
46322;SDS011;32044;52.386;13.278;2024-03-22T03:59:20;29.10;;;15.32;;
46322;SDS011;32044;52.386;13.278;2024-03-22T04:01:46;31.13;;;15.77;;
46322;SDS011;32044;52.386;13.278;2024-03-22T04:04:13;29.92;;;15.18;;
46322;SDS011;32044;52.386;13.278;2024-03-22T04:06:40;24.27;;;13.60;;
46322;SDS011;32044;52.386;13.278;2024-03-22T04:09:06;23.77;;;13.32;;
46322;SDS011;32044;52.386;13.278;2024-03-22T04:11:33;26.52;;;14.15;;
46322;SDS011;32044;52.386;13.278;2024-03-22T04:13:59;23.77;;;13.77;;
46322;SDS011;32044;52.386;13.278;2024-03-22T04:16:26;25.85;;;13.57;;
46322;SDS011;32044;52.386;13.278;2024-03-22T04:18:52;27.92;;;14.68;;
46322;SDS011;32044;52.386;13.278;2024-03-22T04:21:19;24.73;;;14.50;;
46322;SDS011;32044;52.386;13.278;2024-03-22T04:23:46;23.77;;;13.70;;
46322;SDS011;32044;52.386;13.278;2024-03-22T04:26:12;24.05;;;13.75;;
46322;SDS011;32044;52.386;13.278;2024-03-22T04:28:38;25.85;;;13.95;;
46322;SDS011;32044;52.386;13.278;2024-03-22T04:31:05;27.20;;;14.70;;
46322;SDS011;32044;52.386;13.278;2024-03-22T04:33:32;26.75;;;13.75;;
46322;SDS011;32044;52.386;13.278;2024-03-22T04:35:59;27.02;;;14.10;;
46322;SDS011;32044;52.386;13.278;2024-03-22T04:38:26;27.63;;;14.20;;
46322;SDS011;32044;52.386;13.278;2024-03-22T04:40:55;26.95;;;14.82;;
46322;SDS011;32044;52.386;13.278;2024-03-22T04:43:22;29.30;;;14.60;;
46322;SDS011;32044;52.386;13.278;2024-03-22T04:45:48;30.90;;;14.88;;
46322;SDS011;32044;52.386;13.278;2024-03-22T04:48:16;27.52;;;15.27;;
46322;SDS011;32044;52.386;13.278;2024-03-22T04:50:42;29.77;;;16.08;;
46322;SDS011;32044;52.386;13.278;2024-03-22T04:53:09;31.08;;;15.98;;
46322;SDS011;32044;52.386;13.278;2024-03-22T04:55:34;25.33;;;15.43;;
46322;SDS011;32044;52.386;13.278;2024-03-22T04:58:02;31.67;;;16.98;;
46322;SDS011;32044;52.386;13.278;2024-03-22T05:00:28;31.27;;;16.77;;
46322;SDS011;32044;52.386;13.278;2024-03-22T05:02:55;28.90;;;15.07;;
46322;SDS011;32044;52.386;13.278;2024-03-22T05:05:20;33.35;;;17.00;;
46322;SDS011;32044;52.386;13.278;2024-03-22T05:07:47;30.35;;;17.17;;
46322;SDS011;32044;52.386;13.278;2024-03-22T05:10:13;32.65;;;16.65;;
46322;SDS011;32044;52.386;13.278;2024-03-22T05:12:41;28.52;;;15.60;;
46322;SDS011;32044;52.386;13.278;2024-03-22T05:15:08;31.40;;;16.02;;
46322;SDS011;32044;52.386;13.278;2024-03-22T05:17:35;34.88;;;16.88;;
46322;SDS011;32044;52.386;13.278;2024-03-22T05:20:01;32.72;;;16.75;;
46322;SDS011;32044;52.386;13.278;2024-03-22T05:22:27;33.80;;;16.92;;
46322;SDS011;32044;52.386;13.278;2024-03-22T05:24:53;29.35;;;15.45;;
46322;SDS011;32044;52.386;13.278;2024-03-22T05:27:20;29.10;;;16.42;;
46322;SDS011;32044;52.386;13.278;2024-03-22T05:29:45;34.38;;;17.15;;
46322;SDS011;32044;52.386;13.278;2024-03-22T05:32:13;28.88;;;15.98;;
46322;SDS011;32044;52.386;13.278;2024-03-22T05:34:39;28.90;;;15.60;;
46322;SDS011;32044;52.386;13.278;2024-03-22T05:37:05;29.85;;;14.60;;
46322;SDS011;32044;52.386;13.278;2024-03-22T05:39:31;33.20;;;17.42;;
46322;SDS011;32044;52.386;13.278;2024-03-22T05:41:58;32.17;;;16.30;;
46322;SDS011;32044;52.386;13.278;2024-03-22T05:44:23;31.67;;;16.38;;
46322;SDS011;32044;52.386;13.278;2024-03-22T05:46:50;29.13;;;14.48;;
46322;SDS011;32044;52.386;13.278;2024-03-22T05:49:17;30.52;;;16.88;;
46322;SDS011;32044;52.386;13.278;2024-03-22T05:51:44;25.77;;;14.52;;
46322;SDS011;32044;52.386;13.278;2024-03-22T05:54:09;27.25;;;15.68;;
46322;SDS011;32044;52.386;13.278;2024-03-22T05:56:36;30.63;;;16.67;;
46322;SDS011;32044;52.386;13.278;2024-03-22T05:59:01;29.13;;;15.90;;
46322;SDS011;32044;52.386;13.278;2024-03-22T06:01:28;26.95;;;14.80;;
46322;SDS011;32044;52.386;13.278;2024-03-22T06:03:54;28.85;;;15.80;;
46322;SDS011;32044;52.386;13.278;2024-03-22T06:06:22;28.98;;;15.20;;
46322;SDS011;32044;52.386;13.278;2024-03-22T06:08:51;27.83;;;15.80;;
46322;SDS011;32044;52.386;13.278;2024-03-22T06:11:19;26.25;;;15.40;;
46322;SDS011;32044;52.386;13.278;2024-03-22T06:13:45;25.83;;;14.82;;
46322;SDS011;32044;52.386;13.278;2024-03-22T06:16:11;24.13;;;14.73;;
46322;SDS011;32044;52.386;13.278;2024-03-22T06:18:37;31.80;;;15.48;;
46322;SDS011;32044;52.386;13.278;2024-03-22T06:21:04;29.10;;;16.08;;
46322;SDS011;32044;52.386;13.278;2024-03-22T06:23:31;26.95;;;15.52;;
46322;SDS011;32044;52.386;13.278;2024-03-22T06:25:58;29.35;;;14.95;;
46322;SDS011;32044;52.386;13.278;2024-03-22T06:28:25;30.80;;;16.25;;
46322;SDS011;32044;52.386;13.278;2024-03-22T06:30:54;26.63;;;15.52;;
46322;SDS011;32044;52.386;13.278;2024-03-22T06:33:19;27.17;;;16.30;;
46322;SDS011;32044;52.386;13.278;2024-03-22T06:35:46;30.65;;;17.02;;
46322;SDS011;32044;52.386;13.278;2024-03-22T06:38:12;29.05;;;15.82;;
46322;SDS011;32044;52.386;13.278;2024-03-22T06:40:40;32.33;;;16.58;;
46322;SDS011;32044;52.386;13.278;2024-03-22T06:43:05;26.48;;;15.95;;
46322;SDS011;32044;52.386;13.278;2024-03-22T06:45:32;30.38;;;18.25;;
46322;SDS011;32044;52.386;13.278;2024-03-22T06:47:58;31.83;;;17.23;;
46322;SDS011;32044;52.386;13.278;2024-03-22T06:50:24;29.73;;;16.02;;
46322;SDS011;32044;52.386;13.278;2024-03-22T06:52:53;27.25;;;17.48;;
46322;SDS011;32044;52.386;13.278;2024-03-22T06:55:19;34.08;;;17.90;;
46322;SDS011;32044;52.386;13.278;2024-03-22T06:57:46;35.33;;;19.05;;
46322;SDS011;32044;52.386;13.278;2024-03-22T07:00:13;36.90;;;19.70;;
46322;SDS011;32044;52.386;13.278;2024-03-22T07:02:39;35.75;;;19.52;;
46322;SDS011;32044;52.386;13.278;2024-03-22T07:05:06;30.42;;;19.30;;
46322;SDS011;32044;52.386;13.278;2024-03-22T07:07:33;29.77;;;17.92;;
46322;SDS011;32044;52.386;13.278;2024-03-22T07:10:00;33.50;;;17.92;;
46322;SDS011;32044;52.386;13.278;2024-03-22T07:12:25;35.38;;;19.45;;
46322;SDS011;32044;52.386;13.278;2024-03-22T07:14:54;34.03;;;18.90;;
46322;SDS011;32044;52.386;13.278;2024-03-22T07:17:20;36.05;;;19.17;;
46322;SDS011;32044;52.386;13.278;2024-03-22T07:19:49;33.13;;;20.50;;
46322;SDS011;32044;52.386;13.278;2024-03-22T07:22:16;31.52;;;18.25;;
46322;SDS011;32044;52.386;13.278;2024-03-22T07:24:43;38.28;;;19.88;;
46322;SDS011;32044;52.386;13.278;2024-03-22T07:27:08;33.78;;;19.80;;
46322;SDS011;32044;52.386;13.278;2024-03-22T07:29:35;32.53;;;19.02;;
46322;SDS011;32044;52.386;13.278;2024-03-22T07:32:02;30.15;;;17.98;;
46322;SDS011;32044;52.386;13.278;2024-03-22T07:34:29;31.67;;;18.02;;
46322;SDS011;32044;52.386;13.278;2024-03-22T07:36:55;29.60;;;18.80;;
46322;SDS011;32044;52.386;13.278;2024-03-22T07:39:22;31.45;;;19.17;;
46322;SDS011;32044;52.386;13.278;2024-03-22T07:41:48;33.80;;;19.77;;
46322;SDS011;32044;52.386;13.278;2024-03-22T07:44:15;34.08;;;19.55;;
46322;SDS011;32044;52.386;13.278;2024-03-22T07:46:43;33.10;;;19.70;;
46322;SDS011;32044;52.386;13.278;2024-03-22T07:49:11;34.80;;;19.30;;
46322;SDS011;32044;52.386;13.278;2024-03-22T07:51:37;29.55;;;18.88;;
46322;SDS011;32044;52.386;13.278;2024-03-22T07:54:03;37.17;;;20.55;;
46322;SDS011;32044;52.386;13.278;2024-03-22T07:56:29;36.00;;;20.77;;
46322;SDS011;32044;52.386;13.278;2024-03-22T07:58:55;32.08;;;19.25;;
46322;SDS011;32044;52.386;13.278;2024-03-22T08:01:22;31.45;;;19.73;;
46322;SDS011;32044;52.386;13.278;2024-03-22T08:03:48;32.75;;;20.15;;
46322;SDS011;32044;52.386;13.278;2024-03-22T08:06:16;29.33;;;18.38;;
46322;SDS011;32044;52.386;13.278;2024-03-22T08:08:42;31.13;;;17.80;;
46322;SDS011;32044;52.386;13.278;2024-03-22T08:11:09;35.70;;;19.02;;
46322;SDS011;32044;52.386;13.278;2024-03-22T08:13:34;31.30;;;18.40;;
46322;SDS011;32044;52.386;13.278;2024-03-22T08:16:01;30.95;;;18.48;;
46322;SDS011;32044;52.386;13.278;2024-03-22T08:18:26;31.42;;;18.45;;
46322;SDS011;32044;52.386;13.278;2024-03-22T08:20:53;31.38;;;20.05;;
46322;SDS011;32044;52.386;13.278;2024-03-22T08:23:20;29.77;;;19.50;;
46322;SDS011;32044;52.386;13.278;2024-03-22T08:25:48;32.80;;;19.65;;
46322;SDS011;32044;52.386;13.278;2024-03-22T08:28:13;31.63;;;19.15;;
46322;SDS011;32044;52.386;13.278;2024-03-22T08:30:41;29.83;;;18.33;;
46322;SDS011;32044;52.386;13.278;2024-03-22T08:33:07;30.30;;;19.27;;
46322;SDS011;32044;52.386;13.278;2024-03-22T08:35:34;32.92;;;17.83;;
46322;SDS011;32044;52.386;13.278;2024-03-22T08:37:59;29.77;;;18.00;;
46322;SDS011;32044;52.386;13.278;2024-03-22T08:40:27;31.05;;;18.70;;
46322;SDS011;32044;52.386;13.278;2024-03-22T08:42:53;30.52;;;18.48;;
46322;SDS011;32044;52.386;13.278;2024-03-22T08:45:19;35.35;;;19.35;;
46322;SDS011;32044;52.386;13.278;2024-03-22T08:47:45;29.05;;;18.08;;
46322;SDS011;32044;52.386;13.278;2024-03-22T08:50:12;31.50;;;18.83;;
46322;SDS011;32044;52.386;13.278;2024-03-22T08:52:38;30.02;;;18.00;;
46322;SDS011;32044;52.386;13.278;2024-03-22T08:55:04;29.10;;;17.98;;
46322;SDS011;32044;52.386;13.278;2024-03-22T08:57:33;27.83;;;17.48;;
46322;SDS011;32044;52.386;13.278;2024-03-22T08:59:59;33.78;;;18.52;;
46322;SDS011;32044;52.386;13.278;2024-03-22T09:02:25;31.60;;;18.60;;
46322;SDS011;32044;52.386;13.278;2024-03-22T09:04:52;30.48;;;18.05;;
46322;SDS011;32044;52.386;13.278;2024-03-22T09:07:18;33.50;;;19.17;;
46322;SDS011;32044;52.386;13.278;2024-03-22T09:09:45;30.75;;;19.15;;
46322;SDS011;32044;52.386;13.278;2024-03-22T09:12:11;29.75;;;19.17;;
46322;SDS011;32044;52.386;13.278;2024-03-22T09:14:39;32.67;;;18.80;;
46322;SDS011;32044;52.386;13.278;2024-03-22T09:17:04;32.20;;;17.85;;
46322;SDS011;32044;52.386;13.278;2024-03-22T09:19:31;31.25;;;17.55;;
46322;SDS011;32044;52.386;13.278;2024-03-22T09:21:57;29.75;;;18.70;;
46322;SDS011;32044;52.386;13.278;2024-03-22T09:24:24;28.58;;;16.98;;
46322;SDS011;32044;52.386;13.278;2024-03-22T09:26:50;30.88;;;17.52;;
46322;SDS011;32044;52.386;13.278;2024-03-22T09:29:18;26.80;;;16.73;;
46322;SDS011;32044;52.386;13.278;2024-03-22T09:31:45;23.67;;;16.00;;
46322;SDS011;32044;52.386;13.278;2024-03-22T09:34:12;28.70;;;17.38;;
46322;SDS011;32044;52.386;13.278;2024-03-22T09:36:41;28.25;;;16.40;;
46322;SDS011;32044;52.386;13.278;2024-03-22T09:39:07;34.60;;;17.63;;
46322;SDS011;32044;52.386;13.278;2024-03-22T09:41:34;28.55;;;17.20;;
46322;SDS011;32044;52.386;13.278;2024-03-22T09:44:07;31.25;;;16.60;;
46322;SDS011;32044;52.386;13.278;2024-03-22T09:46:35;26.50;;;17.27;;
46322;SDS011;32044;52.386;13.278;2024-03-22T09:49:02;25.60;;;17.23;;
46322;SDS011;32044;52.386;13.278;2024-03-22T09:51:29;26.50;;;17.33;;
46322;SDS011;32044;52.386;13.278;2024-03-22T09:53:54;27.27;;;17.42;;
46322;SDS011;32044;52.386;13.278;2024-03-22T09:56:21;25.75;;;16.85;;
46322;SDS011;32044;52.386;13.278;2024-03-22T09:58:46;27.33;;;16.98;;
46322;SDS011;32044;52.386;13.278;2024-03-22T10:01:13;26.10;;;17.30;;
46322;SDS011;32044;52.386;13.278;2024-03-22T10:03:39;27.30;;;16.85;;
46322;SDS011;32044;52.386;13.278;2024-03-22T10:06:07;27.00;;;17.33;;
46322;SDS011;32044;52.386;13.278;2024-03-22T10:08:32;25.38;;;16.60;;
46322;SDS011;32044;52.386;13.278;2024-03-22T10:11:01;27.40;;;16.70;;
46322;SDS011;32044;52.386;13.278;2024-03-22T10:13:27;28.65;;;16.90;;
46322;SDS011;32044;52.386;13.278;2024-03-22T10:15:54;29.27;;;17.38;;
46322;SDS011;32044;52.386;13.278;2024-03-22T10:18:19;27.65;;;17.17;;
46322;SDS011;32044;52.386;13.278;2024-03-22T10:20:47;25.90;;;16.92;;
46322;SDS011;32044;52.386;13.278;2024-03-22T10:23:14;30.02;;;18.02;;
46322;SDS011;32044;52.386;13.278;2024-03-22T10:25:41;25.73;;;16.73;;
46322;SDS011;32044;52.386;13.278;2024-03-22T10:28:06;29.88;;;16.25;;
46322;SDS011;32044;52.386;13.278;2024-03-22T10:30:33;25.90;;;16.48;;
46322;SDS011;32044;52.386;13.278;2024-03-22T10:33:00;23.63;;;15.25;;
46322;SDS011;32044;52.386;13.278;2024-03-22T10:35:28;27.20;;;17.05;;
46322;SDS011;32044;52.386;13.278;2024-03-22T10:37:55;28.75;;;16.55;;
46322;SDS011;32044;52.386;13.278;2024-03-22T10:40:23;25.75;;;15.63;;
46322;SDS011;32044;52.386;13.278;2024-03-22T10:42:49;25.55;;;15.85;;
46322;SDS011;32044;52.386;13.278;2024-03-22T10:45:16;28.50;;;16.40;;
46322;SDS011;32044;52.386;13.278;2024-03-22T10:47:41;31.27;;;16.67;;
46322;SDS011;32044;52.386;13.278;2024-03-22T10:50:08;27.48;;;16.45;;
46322;SDS011;32044;52.386;13.278;2024-03-22T10:52:36;32.58;;;16.73;;
46322;SDS011;32044;52.386;13.278;2024-03-22T10:55:04;25.73;;;16.45;;
46322;SDS011;32044;52.386;13.278;2024-03-22T10:57:34;26.58;;;16.30;;
46322;SDS011;32044;52.386;13.278;2024-03-22T11:00:03;29.08;;;16.75;;
46322;SDS011;32044;52.386;13.278;2024-03-22T11:02:35;25.35;;;16.02;;
46322;SDS011;32044;52.386;13.278;2024-03-22T11:05:01;24.10;;;14.27;;
46322;SDS011;32044;52.386;13.278;2024-03-22T11:07:28;24.42;;;15.88;;
46322;SDS011;32044;52.386;13.278;2024-03-22T11:09:56;24.67;;;15.13;;
46322;SDS011;32044;52.386;13.278;2024-03-22T11:12:23;27.92;;;16.08;;
46322;SDS011;32044;52.386;13.278;2024-03-22T11:14:52;28.08;;;15.75;;
46322;SDS011;32044;52.386;13.278;2024-03-22T11:17:18;29.55;;;16.48;;
46322;SDS011;32044;52.386;13.278;2024-03-22T11:19:46;25.88;;;15.77;;
46322;SDS011;32044;52.386;13.278;2024-03-22T11:22:12;27.63;;;15.82;;
46322;SDS011;32044;52.386;13.278;2024-03-22T11:24:39;27.52;;;16.05;;
46322;SDS011;32044;52.386;13.278;2024-03-22T11:27:05;29.42;;;16.55;;
46322;SDS011;32044;52.386;13.278;2024-03-22T11:29:32;29.45;;;17.30;;
46322;SDS011;32044;52.386;13.278;2024-03-22T11:32:00;27.85;;;17.17;;
46322;SDS011;32044;52.386;13.278;2024-03-22T11:34:27;26.77;;;16.17;;
46322;SDS011;32044;52.386;13.278;2024-03-22T11:36:53;26.67;;;15.02;;
46322;SDS011;32044;52.386;13.278;2024-03-22T11:39:21;25.98;;;16.48;;
46322;SDS011;32044;52.386;13.278;2024-03-22T11:41:47;32.97;;;17.05;;
46322;SDS011;32044;52.386;13.278;2024-03-22T11:44:15;29.17;;;16.40;;
46322;SDS011;32044;52.386;13.278;2024-03-22T11:46:41;28.25;;;15.82;;
46322;SDS011;32044;52.386;13.278;2024-03-22T11:49:09;26.08;;;15.95;;
46322;SDS011;32044;52.386;13.278;2024-03-22T11:51:35;24.23;;;15.73;;
46322;SDS011;32044;52.386;13.278;2024-03-22T11:54:02;28.42;;;16.50;;
46322;SDS011;32044;52.386;13.278;2024-03-22T11:56:28;24.20;;;15.48;;
46322;SDS011;32044;52.386;13.278;2024-03-22T11:58:57;26.00;;;15.80;;
46322;SDS011;32044;52.386;13.278;2024-03-22T12:01:23;28.48;;;16.05;;
46322;SDS011;32044;52.386;13.278;2024-03-22T12:03:50;25.58;;;16.52;;
46322;SDS011;32044;52.386;13.278;2024-03-22T12:06:17;28.15;;;17.00;;
46322;SDS011;32044;52.386;13.278;2024-03-22T12:08:43;28.85;;;17.70;;
46322;SDS011;32044;52.386;13.278;2024-03-22T12:11:09;28.25;;;17.05;;
46322;SDS011;32044;52.386;13.278;2024-03-22T12:13:37;29.83;;;18.70;;
46322;SDS011;32044;52.386;13.278;2024-03-22T12:16:03;30.92;;;18.90;;
46322;SDS011;32044;52.386;13.278;2024-03-22T12:18:30;29.63;;;17.48;;
46322;SDS011;32044;52.386;13.278;2024-03-22T12:20:55;31.35;;;17.50;;
46322;SDS011;32044;52.386;13.278;2024-03-22T12:23:23;29.48;;;17.58;;
46322;SDS011;32044;52.386;13.278;2024-03-22T12:25:49;34.72;;;18.77;;
46322;SDS011;32044;52.386;13.278;2024-03-22T12:28:16;30.13;;;18.13;;
46322;SDS011;32044;52.386;13.278;2024-03-22T12:30:42;33.67;;;18.33;;
46322;SDS011;32044;52.386;13.278;2024-03-22T12:33:09;30.67;;;18.55;;
46322;SDS011;32044;52.386;13.278;2024-03-22T12:35:35;31.17;;;18.30;;
46322;SDS011;32044;52.386;13.278;2024-03-22T12:38:02;36.58;;;20.02;;
46322;SDS011;32044;52.386;13.278;2024-03-22T12:40:29;30.60;;;18.77;;
46322;SDS011;32044;52.386;13.278;2024-03-22T12:42:58;31.45;;;18.60;;
46322;SDS011;32044;52.386;13.278;2024-03-22T12:45:23;28.77;;;18.67;;
46322;SDS011;32044;52.386;13.278;2024-03-22T12:47:50;30.75;;;17.83;;
46322;SDS011;32044;52.386;13.278;2024-03-22T12:50:15;32.50;;;18.88;;
46322;SDS011;32044;52.386;13.278;2024-03-22T12:52:42;31.00;;;17.42;;
46322;SDS011;32044;52.386;13.278;2024-03-22T12:55:09;33.22;;;18.98;;
46322;SDS011;32044;52.386;13.278;2024-03-22T12:57:37;33.70;;;18.92;;
46322;SDS011;32044;52.386;13.278;2024-03-22T13:00:03;36.83;;;20.23;;
46322;SDS011;32044;52.386;13.278;2024-03-22T13:02:38;37.28;;;20.63;;
46322;SDS011;32044;52.386;13.278;2024-03-22T13:05:04;31.77;;;18.88;;
46322;SDS011;32044;52.386;13.278;2024-03-22T13:07:31;29.35;;;18.35;;
46322;SDS011;32044;52.386;13.278;2024-03-22T13:09:57;32.40;;;19.15;;
46322;SDS011;32044;52.386;13.278;2024-03-22T13:12:25;32.33;;;18.52;;
46322;SDS011;32044;52.386;13.278;2024-03-22T13:14:52;32.40;;;17.65;;
46322;SDS011;32044;52.386;13.278;2024-03-22T13:17:19;29.75;;;17.73;;
46322;SDS011;32044;52.386;13.278;2024-03-22T13:19:44;31.25;;;18.02;;
46322;SDS011;32044;52.386;13.278;2024-03-22T13:22:11;26.73;;;18.00;;
46322;SDS011;32044;52.386;13.278;2024-03-22T13:24:37;32.10;;;18.02;;
46322;SDS011;32044;52.386;13.278;2024-03-22T13:27:04;33.88;;;19.05;;
46322;SDS011;32044;52.386;13.278;2024-03-22T13:29:30;31.50;;;17.92;;
46322;SDS011;32044;52.386;13.278;2024-03-22T13:31:58;29.88;;;18.48;;
46322;SDS011;32044;52.386;13.278;2024-03-22T13:34:24;27.63;;;16.15;;
46322;SDS011;32044;52.386;13.278;2024-03-22T13:36:51;27.50;;;15.65;;
46322;SDS011;32044;52.386;13.278;2024-03-22T13:39:17;31.38;;;14.82;;
46322;SDS011;32044;52.386;13.278;2024-03-22T13:41:44;26.48;;;15.10;;
46322;SDS011;32044;52.386;13.278;2024-03-22T13:44:10;25.48;;;14.60;;
46322;SDS011;32044;52.386;13.278;2024-03-22T13:46:36;25.23;;;14.73;;
46322;SDS011;32044;52.386;13.278;2024-03-22T13:49:12;26.98;;;15.18;;
46322;SDS011;32044;52.386;13.278;2024-03-22T13:51:40;26.55;;;14.65;;
46322;SDS011;32044;52.386;13.278;2024-03-22T13:54:06;28.13;;;16.48;;
46322;SDS011;32044;52.386;13.278;2024-03-22T13:56:33;25.40;;;15.18;;
46322;SDS011;32044;52.386;13.278;2024-03-22T13:58:58;32.58;;;16.73;;
46322;SDS011;32044;52.386;13.278;2024-03-22T14:01:25;28.05;;;16.20;;
46322;SDS011;32044;52.386;13.278;2024-03-22T14:03:50;34.08;;;17.05;;